Annis, Idaho
Current Conditions -  °F | °C
As of 3:53 AM on Friday 31 Oct 2014 (Local Time) from KRXE Reporting Station
Clear Clear  
Wind Chill: 34°   Ceiling: Unl
Heat Index: 38°   Visibility: 10mi
Dew Point: 31°   Wind: 5mph
Humidity: 76%   Direction: 70°ENE
Pressure: 30.05"   Gusts: NA
Location:  43.6749°N, 111.89°W
Report Text: KRXE 310953Z AUTO 07004KT 10SM CLR 03/M01 A3005 RMK AO2 SLP159 T00331006
Loading
Personal Weather Stations






























Interactive Weather Map
Tropical Storm Tracking
New forecast layout! Learn more

10-Day Weather Forecast

Advertisements
Track Severe Weather on mobile